Time;durP1;ratioP1;P1;durP2;ratioP2;P2;SDS_P1;SDS_P2;PMS_P1;PMS_P2;Temp;Humidity;BMP_temperature;BMP_pressure;BME280_temperature;BME280_humidity;BME280_pressure;Samples;Min_cycle;Max_cycle;Signal;HPM_P1;HPM_P2
2021/10/12 00:02:15;;;;;;;5.70;2.00;;;13.30;71.20;;;;;;5056589;28;20476;-74
2021/10/12 00:04:40;;;;;;;7.30;2.05;;;13.20;71.10;;;;;;5070444;28;20055;-74
2021/10/12 00:07:07;;;;;;;4.50;1.58;;;13.30;71.40;;;;;;5070687;28;20107;-74
2021/10/12 00:09:33;;;;;;;6.10;1.90;;;13.10;71.00;;;;;;5070374;28;20028;-74
2021/10/12 00:11:58;;;;;;;5.13;2.55;;;13.10;71.30;;;;;;5050538;28;20440;-74
2021/10/12 00:14:24;;;;;;;2.60;1.70;;;13.10;72.00;;;;;;5067636;28;20537;-74
2021/10/12 00:16:50;;;;;;;5.75;1.80;;;13.00;71.90;;;;;;5069990;28;20028;-74
2021/10/12 00:19:16;;;;;;;6.18;2.15;;;13.00;71.90;;;;;;5070250;28;20046;-74
2021/10/12 00:21:41;;;;;;;5.65;2.13;;;13.00;71.70;;;;;;5070051;28;20033;-73
2021/10/12 00:24:09;;;;;;;4.35;1.70;;;13.00;71.60;;;;;;5071082;28;20024;-74
2021/10/12 00:26:35;;;;;;;5.03;1.75;;;13.10;72.00;;;;;;5070169;28;20108;-74
2021/10/12 00:29:01;;;;;;;5.43;1.80;;;13.10;72.00;;;;;;5070331;28;20131;-74
2021/10/12 00:31:27;;;;;;;4.90;1.88;;;13.10;72.00;;;;;;5070207;28;20029;-74
2021/10/12 00:33:54;;;;;;;5.68;1.55;;;13.10;71.60;;;;;;5070214;28;20033;-74
2021/10/12 00:36:20;;;;;;;5.72;1.83;;;13.10;71.70;;;;;;5070269;28;20056;-74
2021/10/12 00:38:46;;;;;;;3.42;1.58;;;13.10;71.70;;;;;;5069846;28;20087;-74
2021/10/12 00:41:12;;;;;;;7.13;1.55;;;13.10;71.70;;;;;;5070193;28;20104;-73
2021/10/12 00:43:37;;;;;;;3.70;1.55;;;13.10;71.90;;;;;;5070148;28;20029;-74
2021/10/12 00:46:03;;;;;;;5.57;1.85;;;13.00;72.10;;;;;;5070070;28;20033;-73
2021/10/12 00:48:29;;;;;;;7.10;1.70;;;12.90;72.40;;;;;;5070116;28;20669;-74
2021/10/12 00:50:55;;;;;;;9.38;2.03;;;12.90;72.40;;;;;;5069987;28;20059;-74
2021/10/12 00:53:20;;;;;;;6.47;1.70;;;12.90;73.40;;;;;;5069683;28;20068;-73
2021/10/12 00:55:46;;;;;;;5.05;1.52;;;12.90;72.10;;;;;;5070022;28;20021;-73
2021/10/12 00:58:14;;;;;;;7.65;1.67;;;12.80;72.00;;;;;;5072555;28;20020;-73
2021/10/12 01:00:41;;;;;;;4.50;1.50;;;12.80;73.10;;;;;;5073595;28;20016;-73
2021/10/12 01:03:06;;;;;;;6.93;1.77;;;12.80;73.00;;;;;;5074098;28;20037;-73
2021/10/12 01:05:33;;;;;;;5.47;1.70;;;12.70;72.40;;;;;;5073430;28;20380;-73
2021/10/12 01:07:59;;;;;;;5.50;1.83;;;12.70;73.20;;;;;;5068065;28;20447;-74
2021/10/12 01:10:24;;;;;;;8.57;1.88;;;12.70;72.80;;;;;;5073636;28;20012;-73
2021/10/12 01:12:51;;;;;;;3.53;1.30;;;12.60;73.00;;;;;;5063903;28;20091;-73
2021/10/12 01:15:17;;;;;;;7.18;2.00;;;12.60;73.10;;;;;;5069648;28;20078;-73
2021/10/12 01:17:43;;;;;;;4.00;1.30;;;12.50;73.30;;;;;;5073395;28;20491;-74
2021/10/12 01:20:11;;;;;;;4.22;1.30;;;12.50;73.50;;;;;;5073013;28;20119;-74
2021/10/12 01:22:42;;;;;;;6.10;1.60;;;12.50;73.40;;;;;;5058331;28;20127;-74
2021/10/12 01:25:08;;;;;;;4.22;1.67;;;12.50;73.40;;;;;;5054253;28;20514;-74
2021/10/12 01:27:34;;;;;;;6.43;1.67;;;12.40;73.30;;;;;;5073431;28;20009;-73
2021/10/12 01:30:00;;;;;;;4.90;1.48;;;12.30;73.50;;;;;;5073528;28;20375;-74
2021/10/12 01:32:26;;;;;;;3.90;1.50;;;12.40;74.20;;;;;;5072799;28;20123;-74
2021/10/12 01:34:52;;;;;;;4.60;1.40;;;12.40;74.20;;;;;;5073109;28;20465;-74
2021/10/12 01:37:17;;;;;;;4.28;1.38;;;12.30;73.80;;;;;;5073218;28;20027;-74
2021/10/12 01:39:43;;;;;;;3.83;1.38;;;12.30;73.80;;;;;;5072708;28;20057;-73
2021/10/12 01:42:09;;;;;;;4.45;1.38;;;12.30;75.00;;;;;;5073454;28;20720;-74
2021/10/12 01:44:35;;;;;;;3.92;1.70;;;12.30;73.90;;;;;;5072919;28;20424;-74
2021/10/12 01:47:00;;;;;;;6.57;1.55;;;12.30;73.80;;;;;;5072651;28;20400;-74
2021/10/12 01:49:26;;;;;;;3.70;1.40;;;12.30;74.00;;;;;;5072259;28;20028;-74
2021/10/12 01:51:52;;;;;;;4.45;1.30;;;12.30;74.10;;;;;;5073063;28;20036;-73
2021/10/12 01:54:23;;;;;;;6.68;1.75;;;12.30;74.40;;;;;;5073325;28;20074;-73
2021/10/12 01:56:50;;;;;;;8.73;1.67;;;12.30;74.20;;;;;;5072667;28;20108;-74
2021/10/12 01:59:16;;;;;;;3.75;1.05;;;12.20;74.20;;;;;;5072468;28;20563;-74
2021/10/12 02:01:42;;;;;;;3.83;1.45;;;12.20;74.40;;;;;;5068964;28;20065;-74
2021/10/12 02:04:08;;;;;;;6.53;1.58;;;12.30;74.60;;;;;;5072374;28;20021;-73
2021/10/12 02:06:35;;;;;;;5.47;1.40;;;12.20;74.30;;;;;;5072752;28;20020;-73
2021/10/12 02:09:01;;;;;;;3.83;1.30;;;12.30;74.90;;;;;;5072454;28;20024;-73
2021/10/12 02:11:27;;;;;;;6.45;1.58;;;12.30;74.80;;;;;;5072282;28;20038;-73
2021/10/12 02:13:52;;;;;;;4.25;1.23;;;12.20;74.30;;;;;;5059039;28;20028;-73
2021/10/12 02:16:18;;;;;;;8.13;1.80;;;12.20;74.50;;;;;;5072364;28;20025;-73
2021/10/12 02:18:44;;;;;;;4.90;1.45;;;12.10;74.80;;;;;;5071899;28;20025;-73
2021/10/12 02:21:09;;;;;;;6.35;1.65;;;12.10;74.70;;;;;;5072978;28;20020;-73
2021/10/12 02:23:35;;;;;;;4.78;1.40;;;12.10;74.80;;;;;;5072094;28;20035;-74
2021/10/12 02:26:01;;;;;;;4.07;1.30;;;12.20;75.10;;;;;;5072145;28;20025;-74
2021/10/12 02:28:26;;;;;;;4.97;1.63;;;12.10;74.70;;;;;;5072295;28;20029;-73
2021/10/12 02:30:52;;;;;;;5.20;1.48;;;12.10;74.80;;;;;;5071750;28;20481;-74
2021/10/12 02:33:18;;;;;;;5.32;1.67;;;12.10;74.80;;;;;;5072524;28;20040;-73
2021/10/12 02:35:44;;;;;;;3.58;1.33;;;12.10;75.10;;;;;;5072300;28;20021;-74
2021/10/12 02:38:09;;;;;;;5.10;1.38;;;12.00;74.90;;;;;;5071813;28;20037;-73
2021/10/12 02:40:35;;;;;;;4.38;1.50;;;12.00;75.00;;;;;;5072040;28;20111;-74
2021/10/12 02:43:01;;;;;;;2.92;1.15;;;12.00;74.90;;;;;;5072225;28;20029;-73
2021/10/12 02:45:26;;;;;;;4.35;1.70;;;12.00;74.70;;;;;;5072054;28;20028;-74
2021/10/12 02:47:52;;;;;;;4.88;1.42;;;12.00;74.90;;;;;;5071834;28;20021;-74
2021/10/12 02:50:17;;;;;;;4.20;1.33;;;11.90;74.70;;;;;;5071708;28;20059;-73
2021/10/12 02:52:43;;;;;;;4.15;1.25;;;12.00;75.40;;;;;;5057914;28;20420;-73
2021/10/12 02:55:09;;;;;;;6.38;1.75;;;11.90;74.70;;;;;;5071626;28;20493;-73
2021/10/12 02:57:35;;;;;;;5.80;1.42;;;11.90;74.60;;;;;;5055329;28;20120;-73
2021/10/12 03:00:02;;;;;;;5.25;1.35;;;11.80;74.90;;;;;;5072082;28;20029;-73
2021/10/12 03:02:28;;;;;;;4.18;1.48;;;11.80;74.80;;;;;;5070944;28;20127;-73
2021/10/12 03:04:54;;;;;;;5.35;1.50;;;11.80;74.70;;;;;;5070102;28;20132;-74
2021/10/12 03:07:20;;;;;;;3.90;1.48;;;11.80;75.00;;;;;;5071360;28;20028;-73
2021/10/12 03:09:45;;;;;;;6.07;1.40;;;11.80;75.00;;;;;;5071444;28;20027;-73
2021/10/12 03:12:11;;;;;;;4.07;1.33;;;11.70;75.10;;;;;;5071677;28;20075;-73
2021/10/12 03:14:38;;;;;;;3.67;1.63;;;11.70;75.30;;;;;;5071251;28;20028;-73
2021/10/12 03:17:03;;;;;;;4.60;1.40;;;11.70;76.10;;;;;;5070863;28;20044;-73
2021/10/12 03:19:29;;;;;;;6.50;2.05;;;11.70;75.30;;;;;;5070949;28;20397;-73
2021/10/12 03:21:59;;;;;;;3.33;1.10;;;11.70;75.10;;;;;;5070221;28;20493;-74
2021/10/12 03:24:24;;;;;;;5.15;1.42;;;11.70;75.30;;;;;;5071620;28;20039;-73
2021/10/12 03:26:50;;;;;;;5.00;1.45;;;11.70;75.20;;;;;;5071385;28;20029;-74
2021/10/12 03:29:16;;;;;;;5.60;1.20;;;11.70;75.00;;;;;;5056098;28;20036;-74
2021/10/12 03:31:42;;;;;;;3.97;1.40;;;11.70;74.90;;;;;;5070561;28;20044;-74
2021/10/12 03:34:07;;;;;;;6.32;1.40;;;11.60;74.90;;;;;;5070997;28;20024;-74
2021/10/12 03:36:33;;;;;;;7.10;1.58;;;11.60;74.70;;;;;;5070927;28;20077;-74
2021/10/12 03:38:59;;;;;;;3.20;1.30;;;11.50;74.60;;;;;;5071155;28;20044;-75
2021/10/12 03:41:25;;;;;;;4.85;1.60;;;11.50;74.90;;;;;;5070824;28;20131;-75
2021/10/12 03:43:50;;;;;;;4.53;1.60;;;11.40;75.20;;;;;;5070916;28;20071;-75
2021/10/12 03:46:16;;;;;;;3.47;1.40;;;11.40;75.30;;;;;;5070732;28;20025;-74
2021/10/12 03:48:41;;;;;;;3.65;1.25;;;11.50;75.50;;;;;;5071014;28;20032;-74
2021/10/12 03:51:07;;;;;;;4.53;1.40;;;11.60;75.50;;;;;;5071292;28;20032;-74
2021/10/12 03:53:34;;;;;;;3.90;1.30;;;11.50;75.30;;;;;;5070777;28;20028;-74
2021/10/12 03:56:00;;;;;;;6.53;1.40;;;11.50;75.20;;;;;;5070494;28;20025;-74
2021/10/12 03:58:26;;;;;;;2.55;1.17;;;11.50;75.10;;;;;;5070780;28;20451;-74
2021/10/12 04:00:51;;;;;;;3.15;1.48;;;11.40;75.20;;;;;;5070358;28;20104;-74
2021/10/12 04:03:17;;;;;;;2.95;1.33;;;11.40;75.40;;;;;;5070178;28;20036;-74
2021/10/12 04:05:43;;;;;;;5.10;1.45;;;11.40;75.50;;;;;;5069955;28;20063;-74
2021/10/12 04:08:09;;;;;;;5.57;1.50;;;11.40;75.80;;;;;;5069868;28;20021;-74
2021/10/12 04:10:34;;;;;;;3.60;1.50;;;11.30;75.40;;;;;;5070288;28;20032;-74
2021/10/12 04:13:02;;;;;;;4.53;1.27;;;11.30;75.10;;;;;;5069861;28;20040;-74
2021/10/12 04:15:27;;;;;;;2.53;1.15;;;11.30;75.00;;;;;;5069918;28;20020;-74
2021/10/12 04:17:53;;;;;;;4.05;1.38;;;11.30;74.90;;;;;;5070401;28;20032;-74
2021/10/12 04:20:24;;;;;;;3.83;1.42;;;11.20;75.20;;;;;;5070393;28;20051;-74
2021/10/12 04:22:49;;;;;;;4.43;1.38;;;11.20;75.30;;;;;;5070165;28;20472;-74
2021/10/12 04:25:15;;;;;;;5.95;1.40;;;11.20;75.40;;;;;;5070454;28;20103;-74
2021/10/12 04:27:41;;;;;;;4.82;1.38;;;11.20;75.40;;;;;;5070387;28;20032;-74
2021/10/12 04:30:06;;;;;;;5.43;1.63;;;11.20;75.60;;;;;;5070540;28;20060;-74
2021/10/12 04:32:32;;;;;;;4.78;1.67;;;11.20;75.70;;;;;;5071832;28;20047;-74
2021/10/12 04:34:58;;;;;;;3.55;1.40;;;11.10;75.60;;;;;;5074115;28;20039;-74
2021/10/12 04:37:23;;;;;;;3.78;1.38;;;11.10;75.60;;;;;;5057454;28;20029;-74
2021/10/12 04:39:49;;;;;;;4.50;1.60;;;11.10;75.60;;;;;;5056283;28;20047;-74
2021/10/12 04:42:15;;;;;;;3.10;1.23;;;11.10;75.60;;;;;;5070505;28;20064;-74
2021/10/12 04:44:41;;;;;;;3.33;1.27;;;11.00;75.60;;;;;;5073637;28;20115;-74
2021/10/12 04:47:09;;;;;;;3.65;1.40;;;11.00;75.80;;;;;;5074148;28;20488;-74
2021/10/12 04:49:35;;;;;;;4.82;1.70;;;11.00;75.50;;;;;;5058235;28;20059;-74
2021/10/12 04:52:01;;;;;;;3.13;1.25;;;11.00;75.60;;;;;;5074927;28;20093;-74
2021/10/12 04:54:26;;;;;;;3.83;1.50;;;11.00;75.60;;;;;;5074974;28;20469;-74
2021/10/12 04:56:52;;;;;;;3.90;1.50;;;11.00;75.70;;;;;;5075478;28;20082;-74
2021/10/12 04:59:18;;;;;;;4.45;1.52;;;11.00;75.90;;;;;;5074351;28;20029;-74
2021/10/12 05:01:43;;;;;;;4.03;1.42;;;11.00;76.60;;;;;;5074816;28;20059;-74
2021/10/12 05:04:09;;;;;;;3.33;1.35;;;10.90;75.60;;;;;;5074909;28;20378;-74
2021/10/12 05:06:35;;;;;;;4.78;1.50;;;10.90;75.70;;;;;;5074464;28;20021;-74
2021/10/12 05:09:00;;;;;;;4.97;1.95;;;10.90;76.00;;;;;;5074731;28;20033;-74
2021/10/12 05:11:26;;;;;;;5.18;1.65;;;10.90;75.90;;;;;;5060664;28;20120;-76
2021/10/12 05:13:52;;;;;;;5.00;1.67;;;10.90;75.90;;;;;;5074118;28;20063;-72
2021/10/12 05:16:20;;;;;;;4.55;1.73;;;10.90;75.90;;;;;;5074486;28;20009;-73
2021/10/12 05:18:47;;;;;;;3.90;1.55;;;10.90;75.90;;;;;;5074340;28;20397;-72
2021/10/12 05:21:13;;;;;;;3.42;1.60;;;10.80;75.90;;;;;;5074795;28;20025;-73
2021/10/12 05:23:38;;;;;;;5.13;1.55;;;10.90;76.00;;;;;;5074099;28;20362;-74
2021/10/12 05:26:05;;;;;;;4.55;1.42;;;10.90;75.80;;;;;;5074094;28;20035;-65
2021/10/12 05:28:33;;;;;;;4.32;1.42;;;10.80;75.60;;;;;;5073659;28;20588;-64
2021/10/12 05:30:58;;;;;;;3.63;1.25;;;10.80;75.30;;;;;;5074000;28;20111;-63
2021/10/12 05:33:24;;;;;;;3.60;1.70;;;10.70;75.60;;;;;;5074482;28;20116;-64
2021/10/12 05:35:50;;;;;;;4.60;1.48;;;10.60;75.90;;;;;;5074258;28;20037;-72
2021/10/12 05:38:18;;;;;;;5.30;1.60;;;10.60;76.40;;;;;;5073837;28;20506;-71
2021/10/12 05:40:44;;;;;;;3.13;1.35;;;10.70;77.20;;;;;;5073566;28;20443;-69
2021/10/12 05:43:09;;;;;;;4.63;1.50;;;10.70;76.20;;;;;;5073256;28;20028;-69
2021/10/12 05:45:36;;;;;;;4.68;1.55;;;10.70;76.00;;;;;;5075380;28;20076;-71
2021/10/12 05:48:06;;;;;;;4.57;2.00;;;10.70;76.00;;;;;;5073851;28;20102;-72
2021/10/12 05:50:33;;;;;;;4.72;1.63;;;10.60;76.10;;;;;;5072086;28;20032;-71
2021/10/12 05:53:09;;;;;;;2.25;1.23;;;10.60;76.00;;;;;;5071818;28;20036;-72
2021/10/12 05:56:21;;;;;;;6.30;1.77;;;10.60;76.50;;;;;;5071728;28;21082;-71
2021/10/12 06:01:10;;;;;;;3.65;1.90;;;10.50;76.20;;;;;;5069527;28;20408;-72
2021/10/12 06:03:36;;;;;;;4.75;1.58;;;10.60;76.20;;;;;;5072237;28;20021;-71
2021/10/12 06:06:02;;;;;;;3.35;1.20;;;10.60;76.30;;;;;;5072539;28;20023;-71
2021/10/12 06:08:33;;;;;;;4.15;1.45;;;10.50;76.20;;;;;;5071851;28;20033;-71
2021/10/12 06:11:01;;;;;;;4.18;1.50;;;10.50;76.40;;;;;;5071567;28;20024;-71
2021/10/12 06:13:27;;;;;;;4.03;1.58;;;10.50;76.40;;;;;;5069166;28;20037;-71
2021/10/12 06:15:53;;;;;;;5.75;1.70;;;10.50;76.40;;;;;;5070561;28;20064;-72
2021/10/12 06:18:20;;;;;;;5.30;1.90;;;10.40;76.30;;;;;;5074928;28;20024;-71
2021/10/12 06:20:47;;;;;;;4.20;1.60;;;10.50;76.70;;;;;;5072193;28;20439;-71
2021/10/12 06:23:12;;;;;;;3.25;1.58;;;10.50;76.60;;;;;;5072562;28;20028;-72
2021/10/12 06:25:39;;;;;;;4.45;1.70;;;10.50;76.70;;;;;;5070743;28;20025;-71
2021/10/12 06:28:05;;;;;;;5.85;2.05;;;10.50;76.80;;;;;;5071620;28;20029;-72
2021/10/12 06:30:31;;;;;;;3.70;1.90;;;10.50;76.80;;;;;;5071185;28;21328;-70
2021/10/12 06:32:57;;;;;;;3.17;1.63;;;10.50;76.70;;;;;;5073308;28;20068;-71
2021/10/12 06:35:23;;;;;;;3.15;1.70;;;10.50;76.60;;;;;;5071714;28;20433;-70
2021/10/12 06:37:49;;;;;;;4.22;1.63;;;10.50;77.20;;;;;;5071997;28;20105;-70
2021/10/12 06:40:15;;;;;;;3.67;1.80;;;10.60;77.30;;;;;;5070906;28;20041;-71
2021/10/12 06:42:40;;;;;;;4.32;1.80;;;10.60;77.40;;;;;;5070935;28;20115;-70
2021/10/12 06:45:06;;;;;;;5.90;1.65;;;10.70;77.30;;;;;;5072024;28;20050;-72
2021/10/12 06:47:32;;;;;;;2.85;1.70;;;10.80;77.20;;;;;;5071680;28;20078;-72
2021/10/12 06:49:58;;;;;;;3.63;1.70;;;10.90;77.10;;;;;;5072210;28;20032;-71
2021/10/12 06:52:24;;;;;;;4.40;1.80;;;11.00;76.90;;;;;;5071559;28;20064;-72
2021/10/12 06:54:50;;;;;;;3.88;1.88;;;11.10;76.80;;;;;;5054139;28;20021;-71
2021/10/12 06:57:16;;;;;;;4.05;1.55;;;11.20;77.00;;;;;;5068734;28;20039;-72
2021/10/12 06:59:42;;;;;;;3.97;1.83;;;11.30;76.90;;;;;;5072354;28;20090;-72
2021/10/12 07:02:08;;;;;;;3.00;1.70;;;11.60;76.60;;;;;;5072190;28;20493;-71
2021/10/12 07:04:33;;;;;;;3.45;1.92;;;11.60;75.90;;;;;;5065469;28;20028;-70
2021/10/12 07:07:00;;;;;;;3.75;2.17;;;11.70;75.90;;;;;;5065130;28;20040;-72
2021/10/12 07:09:26;;;;;;;2.80;1.90;;;11.80;75.20;;;;;;5069431;28;20105;-73
2021/10/12 07:11:52;;;;;;;2.75;1.40;;;11.90;75.30;;;;;;5070444;28;20036;-72
2021/10/12 07:14:17;;;;;;;4.63;1.50;;;12.10;75.50;;;;;;5070668;28;20032;-73
2021/10/12 07:16:43;;;;;;;3.10;1.63;;;12.30;75.00;;;;;;5071825;28;20109;-72
2021/10/12 07:19:09;;;;;;;3.05;1.55;;;12.40;74.40;;;;;;5071648;28;20032;-74
2021/10/12 07:21:34;;;;;;;3.17;1.85;;;12.50;74.10;;;;;;5067825;28;20025;-76
2021/10/12 07:24:00;;;;;;;4.15;1.30;;;12.60;74.30;;;;;;5067083;28;20036;-76
2021/10/12 07:26:26;;;;;;;1.90;1.05;;;12.70;74.20;;;;;;5069504;28;20025;-78
2021/10/12 07:28:53;;;;;;;2.55;1.05;;;12.80;74.50;;;;;;5070515;28;20031;-74
2021/10/12 07:31:19;;;;;;;3.08;1.20;;;12.90;73.50;;;;;;5070798;28;20020;-76
2021/10/12 07:33:45;;;;;;;1.58;1.13;;;13.10;74.30;;;;;;5070149;28;20519;-76
2021/10/12 07:36:11;;;;;;;2.90;1.25;;;13.30;73.50;;;;;;5070341;28;20826;-77
2021/10/12 07:38:37;;;;;;;1.77;1.10;;;13.50;72.80;;;;;;5070204;28;20547;-77
2021/10/12 07:41:02;;;;;;;1.88;1.10;;;13.60;72.90;;;;;;5070926;28;20566;-74
2021/10/12 07:43:28;;;;;;;2.83;1.05;;;13.70;72.00;;;;;;5069425;28;20413;-74
2021/10/12 07:45:54;;;;;;;1.45;1.10;;;13.90;72.30;;;;;;5070609;28;20511;-74
2021/10/12 07:48:20;;;;;;;1.63;0.80;;;14.10;72.00;;;;;;5071466;28;20082;-74
2021/10/12 07:50:47;;;;;;;1.70;1.05;;;14.40;71.60;;;;;;5070456;28;20464;-76
2021/10/12 07:53:13;;;;;;;1.75;1.10;;;14.50;70.50;;;;;;5070370;28;20032;-76
2021/10/12 07:55:42;;;;;;;1.80;1.23;;;14.70;70.60;;;;;;5067020;28;20492;-79
2021/10/12 07:58:08;;;;;;;3.90;1.25;;;15.00;70.80;;;;;;5070290;28;20028;-75
2021/10/12 08:00:34;;;;;;;1.73;0.98;;;15.30;69.50;;;;;;5070971;28;20032;-72
2021/10/12 08:03:01;;;;;;;2.20;1.10;;;15.40;68.90;;;;;;5070868;28;20021;-74
2021/10/12 08:05:27;;;;;;;2.10;1.20;;;15.60;67.70;;;;;;5069356;28;20052;-76
2021/10/12 08:07:54;;;;;;;2.97;1.13;;;15.60;67.70;;;;;;5069730;28;20028;-76
2021/10/12 08:10:21;;;;;;;1.90;1.10;;;15.80;67.50;;;;;;5070261;28;20069;-77
2021/10/12 08:12:50;;;;;;;1.90;0.93;;;16.00;67.00;;;;;;5068314;28;20725;-78
2021/10/12 08:15:16;;;;;;;1.25;0.90;;;16.20;67.80;;;;;;5066224;28;20040;-77
2021/10/12 08:17:41;;;;;;;2.53;1.00;;;16.50;67.40;;;;;;5070727;28;20182;-77
2021/10/12 08:20:08;;;;;;;3.53;1.33;;;16.70;66.20;;;;;;5062249;28;20035;-79
2021/10/12 08:22:33;;;;;;;1.75;1.05;;;16.90;66.10;;;;;;5070147;28;20017;-77
2021/10/12 08:24:59;;;;;;;1.92;1.10;;;17.10;65.50;;;;;;5070109;28;20496;-74
2021/10/12 08:27:25;;;;;;;1.73;0.98;;;17.30;65.30;;;;;;5038112;28;20035;-75
2021/10/12 08:29:51;;;;;;;2.60;1.30;;;17.50;64.30;;;;;;5070583;28;20032;-79
2021/10/12 08:32:16;;;;;;;3.92;1.20;;;17.50;64.10;;;;;;5070064;28;20043;-74
2021/10/12 08:34:42;;;;;;;2.55;1.23;;;17.50;64.20;;;;;;5076402;28;20141;-73
2021/10/12 08:37:08;;;;;;;2.40;1.20;;;17.70;64.20;;;;;;5070887;28;20025;-73
2021/10/12 08:39:34;;;;;;;2.90;1.20;;;17.90;64.00;;;;;;5070823;28;20051;-73
2021/10/12 08:42:25;;;;;;;3.63;1.20;;;18.20;63.30;;;;;;5057024;28;20033;-73
2021/10/12 08:44:57;;;;;;;2.75;0.90;;;18.40;64.50;;;;;;5070415;28;20103;-73
2021/10/12 08:47:23;;;;;;;3.37;1.20;;;18.70;62.80;;;;;;5067850;28;20020;-73
2021/10/12 08:49:50;;;;;;;2.05;0.93;;;19.00;62.20;;;;;;5069450;28;20448;-73
2021/10/12 08:52:16;;;;;;;4.07;1.30;;;19.30;61.80;;;;;;5069491;28;20036;-73
2021/10/12 08:54:42;;;;;;;2.83;1.52;;;19.40;60.80;;;;;;5070358;28;20474;-73
2021/10/12 08:57:08;;;;;;;3.50;1.50;;;19.50;60.90;;;;;;5070487;28;20035;-73
2021/10/12 08:59:34;;;;;;;3.17;1.27;;;19.70;60.10;;;;;;5070288;28;20532;-73
2021/10/12 09:02:03;;;;;;;3.08;1.20;;;19.90;59.50;;;;;;5069694;28;20032;-73
2021/10/12 09:04:40;;;;;;;3.03;1.17;;;20.00;58.60;;;;;;5069431;28;20393;-74
2021/10/12 09:07:20;;;;;;;2.95;1.10;;;20.10;59.10;;;;;;5068451;28;20112;-74
2021/10/12 09:09:46;;;;;;;2.60;1.00;;;20.10;60.60;;;;;;5069586;28;20029;-74
2021/10/12 09:12:12;;;;;;;2.65;1.10;;;20.00;58.20;;;;;;5066352;28;20094;-73
2021/10/12 09:14:54;;;;;;;5.25;1.58;;;19.70;58.40;;;;;;5068260;28;20488;-73
2021/10/12 09:17:37;;;;;;;3.47;1.30;;;19.40;59.70;;;;;;5069193;28;20115;-73
2021/10/12 09:20:22;;;;;;;2.50;1.25;;;19.10;60.50;;;;;;5071546;28;20496;-72
2021/10/12 09:23:12;;;;;;;4.13;1.52;;;18.80;60.20;;;;;;5072857;28;20532;-73
2021/10/12 09:25:45;;;;;;;5.88;1.70;;;18.40;61.20;;;;;;5071939;28;20138;-73
2021/10/12 09:28:24;;;;;;;;;;;18.10;61.80;;;;;;5062906;28;20040;-74
2021/10/12 09:30:53;;;;;;;4.00;1.75;;;17.90;62.30;;;;;;5064887;28;19979;-72
2021/10/12 09:33:19;;;;;;;4.28;1.58;;;17.60;63.00;;;;;;5069007;28;20546;-73
2021/10/12 09:35:44;;;;;;;5.30;1.90;;;17.40;64.70;;;;;;5072709;28;20020;-73
2021/10/12 09:38:12;;;;;;;4.57;1.75;;;17.30;64.20;;;;;;5071880;28;20036;-72
2021/10/12 09:40:46;;;;;;;3.85;1.90;;;17.20;64.90;;;;;;5072476;28;20037;-73
2021/10/12 09:43:34;;;;;;;4.47;1.42;;;17.10;64.90;;;;;;5072821;28;20051;-73
2021/10/12 09:45:59;;;;;;;3.55;1.90;;;17.10;65.60;;;;;;5057973;28;20044;-73
2021/10/12 09:48:33;;;;;;;3.08;1.65;;;17.10;65.50;;;;;;5071979;28;20032;-72
2021/10/12 09:51:12;;;;;;;5.60;1.75;;;17.10;65.40;;;;;;5059258;28;20024;-72
2021/10/12 09:53:39;;;;;;;4.07;1.70;;;17.20;65.60;;;;;;5072530;28;20041;-64
2021/10/12 09:56:06;;;;;;;5.45;2.00;;;17.20;65.30;;;;;;5073196;28;20024;-65
2021/10/12 09:58:33;;;;;;;8.10;1.90;;;17.20;65.00;;;;;;5073552;28;20576;-80
2021/10/12 10:01:04;;;;;;;4.13;1.80;;;17.20;65.10;;;;;;5073305;28;20032;-77
2021/10/12 10:03:30;;;;;;;6.45;1.90;;;17.10;64.90;;;;;;5066788;28;20028;-75
2021/10/12 10:06:01;;;;;;;4.70;1.92;;;17.10;65.50;;;;;;5072074;28;20025;-76
2021/10/12 10:08:31;;;;;;;5.47;1.70;;;17.40;66.50;;;;;;5072432;28;20403;-76
2021/10/12 10:10:57;;;;;;;5.43;1.80;;;17.70;65.80;;;;;;5072639;28;20039;-76
2021/10/12 10:13:26;;;;;;;4.38;1.90;;;18.10;65.60;;;;;;5073002;28;20036;-79
2021/10/12 10:15:53;;;;;;;6.22;1.85;;;18.40;64.00;;;;;;5073144;28;20095;-78
2021/10/12 10:18:20;;;;;;;6.07;2.05;;;18.60;63.50;;;;;;5084159;28;20028;-79
2021/10/12 10:20:50;;;;;;;5.47;1.88;;;19.10;62.00;;;;;;5080448;28;20114;-79
2021/10/12 10:23:47;;;;;;;5.13;1.92;;;19.40;60.80;;;;;;5081869;28;20043;-78
2021/10/12 10:26:40;;;;;;;3.40;1.55;;;19.60;61.50;;;;;;5078484;28;20058;-79
2021/10/12 10:29:24;;;;;;;3.45;1.55;;;20.30;61.80;;;;;;5076367;28;20055;-79
2021/10/12 10:31:56;;;;;;;3.28;1.40;;;20.60;60.10;;;;;;5066405;28;20021;-80
2021/10/12 10:34:42;;;;;;;4.28;1.90;;;21.00;56.00;;;;;;5075825;28;20112;-78
2021/10/12 10:37:17;;;;;;;4.82;1.67;;;21.30;55.50;;;;;;5081429;28;20041;-76
2021/10/12 10:39:53;;;;;;;3.22;1.27;;;21.40;55.40;;;;;;5073245;28;20106;-81
2021/10/12 10:42:41;;;;;;;3.67;1.50;;;21.60;52.90;;;;;;5074469;28;20393;-82
2021/10/12 10:45:08;;;;;;;5.38;1.60;;;21.90;55.00;;;;;;5071610;28;20027;-82
2021/10/12 10:47:49;;;;;;;4.18;1.70;;;22.30;52.60;;;;;;5072656;28;20103;-85
2021/10/12 10:50:25;;;;;;;3.15;1.35;;;22.70;52.50;;;;;;5072191;28;20025;-79
2021/10/12 10:52:56;;;;;;;5.85;1.30;;;23.20;52.60;;;;;;5072669;28;20471;-83
2021/10/12 10:55:22;;;;;;;3.10;1.30;;;23.60;48.80;;;;;;5071256;28;20024;-84
2021/10/12 10:58:08;;;;;;;4.63;1.63;;;23.80;50.70;;;;;;5071457;28;20028;-81
2021/10/12 11:00:44;;;;;;;3.67;1.60;;;23.60;50.20;;;;;;5070503;28;20393;-79
2021/10/12 11:03:32;;;;;;;4.63;1.58;;;23.10;48.50;;;;;;5068052;28;20024;-78
2021/10/12 11:06:20;;;;;;;4.35;1.40;;;22.70;49.70;;;;;;5074213;28;20028;-79
2021/10/12 11:09:03;;;;;;;3.50;1.55;;;23.00;51.50;;;;;;5053494;28;20115;-81
2021/10/12 11:11:35;;;;;;;2.38;1.15;;;22.80;50.00;;;;;;5072163;28;20071;-82
2021/10/12 11:14:03;;;;;;;5.43;1.48;;;22.80;50.70;;;;;;5071712;28;20093;-79
2021/10/12 11:16:38;;;;;;;4.20;1.40;;;22.90;49.80;;;;;;5070969;28;20028;-75
2021/10/12 11:19:05;;;;;;;4.57;1.45;;;22.80;50.20;;;;;;5070305;28;20485;-75
2021/10/12 11:21:31;;;;;;;4.05;1.55;;;22.90;50.00;;;;;;5071159;28;20052;-72
2021/10/12 11:24:00;;;;;;;3.30;1.50;;;23.00;48.90;;;;;;5065152;28;20052;-71
2021/10/12 11:26:27;;;;;;;4.90;1.67;;;23.10;49.40;;;;;;5067787;28;20028;-80
2021/10/12 11:28:56;;;;;;;5.32;1.60;;;23.00;49.20;;;;;;5069530;28;20020;-80
2021/10/12 11:31:28;;;;;;;3.17;1.38;;;22.70;48.30;;;;;;5050712;28;20496;-80
2021/10/12 11:33:58;;;;;;;5.95;1.90;;;22.40;48.10;;;;;;5056062;28;20059;-79
2021/10/12 11:36:27;;;;;;;4.80;1.55;;;21.90;49.10;;;;;;5071317;28;20115;-79
2021/10/12 11:38:54;;;;;;;5.22;1.65;;;21.60;50.40;;;;;;5069606;28;20048;-79
2021/10/12 11:41:33;;;;;;;8.25;1.67;;;21.40;51.30;;;;;;5070650;28;20446;-80
2021/10/12 11:44:20;;;;;;;3.45;1.38;;;21.30;51.70;;;;;;5075397;28;20036;-80
2021/10/12 11:46:47;;;;;;;3.63;1.35;;;21.60;53.30;;;;;;5071461;28;20012;-73
2021/10/12 11:49:15;;;;;;;4.60;1.48;;;21.70;52.50;;;;;;5051352;28;20020;-74
2021/10/12 11:51:43;;;;;;;4.57;1.30;;;21.90;52.00;;;;;;5076702;28;20048;-76
2021/10/12 11:54:09;;;;;;;4.15;1.60;;;22.40;52.70;;;;;;5056271;28;20048;-75
2021/10/12 11:56:36;;;;;;;4.10;1.38;;;23.00;51.70;;;;;;5071608;28;20017;-74
2021/10/12 11:59:04;;;;;;;5.18;1.70;;;23.60;49.60;;;;;;5065459;28;20028;-75
2021/10/12 12:01:34;;;;;;;3.92;1.30;;;23.50;48.20;;;;;;5060592;28;20040;-75
2021/10/12 12:04:02;;;;;;;3.70;1.33;;;23.40;50.00;;;;;;5070354;28;20032;-75
2021/10/12 12:06:29;;;;;;;4.18;1.30;;;23.90;49.80;;;;;;5071946;28;20025;-76
2021/10/12 12:08:57;;;;;;;3.75;1.30;;;23.70;47.00;;;;;;5070402;28;20037;-75
2021/10/12 12:11:26;;;;;;;4.25;1.45;;;23.50;48.30;;;;;;5067190;28;20045;-75
2021/10/12 12:13:53;;;;;;;4.97;1.55;;;23.00;47.20;;;;;;5069570;28;20035;-75
2021/10/12 12:16:20;;;;;;;3.45;1.30;;;22.50;48.60;;;;;;5051789;28;20511;-75
2021/10/12 12:18:45;;;;;;;4.32;1.50;;;22.10;49.10;;;;;;5069795;28;20154;-75
2021/10/12 12:21:11;;;;;;;4.30;1.52;;;22.00;49.60;;;;;;5073865;28;20107;-75
2021/10/12 12:23:47;;;;;;;6.20;1.73;;;21.90;49.60;;;;;;5069565;28;20574;-74
2021/10/12 12:26:21;;;;;;;5.47;1.70;;;21.80;50.50;;;;;;5069688;28;20032;-75
2021/10/12 12:28:47;;;;;;;4.22;1.45;;;21.80;51.40;;;;;;5067248;28;20070;-75
2021/10/12 12:31:31;;;;;;;3.10;1.40;;;21.90;50.60;;;;;;5069623;28;20396;-75
2021/10/12 12:33:57;;;;;;;4.35;1.40;;;21.90;51.30;;;;;;5069026;28;20071;-75
2021/10/12 12:36:34;;;;;;;4.85;1.45;;;22.60;50.80;;;;;;5068102;28;20017;-75
2021/10/12 12:39:09;;;;;;;4.28;1.50;;;22.50;50.50;;;;;;5070014;28;20048;-75
2021/10/12 12:41:40;;;;;;;5.78;1.55;;;22.80;51.30;;;;;;5069255;28;20127;-75
2021/10/12 12:44:09;;;;;;;4.40;1.38;;;25.40;53.60;;;;;;5067333;28;20401;-75
2021/10/12 12:46:36;;;;;;;4.85;1.20;;;24.90;42.10;;;;;;5069529;28;20120;-75
2021/10/12 12:49:09;;;;;;;6.60;2.00;;;23.80;43.70;;;;;;5069960;28;20025;-75
2021/10/12 12:51:48;;;;;;;3.17;1.20;;;24.90;43.50;;;;;;5069978;28;20152;-75
2021/10/12 12:54:33;;;;;;;3.67;1.42;;;25.80;45.80;;;;;;5077418;28;20040;-76
2021/10/12 12:57:15;;;;;;;3.67;1.20;;;24.70;41.20;;;;;;5073140;28;20047;-74